sensor_id;sensor_type;location;lat;lon;timestamp;pressure;altitude;pressure_sealevel;temperature;humidity
37206;BME280;23099;42.636;23.198;2023-08-08T00:02:17;91912.63;;;15.73;100.00
37206;BME280;23099;42.636;23.198;2023-08-08T00:04:44;91913.00;;;15.75;100.00
37206;BME280;23099;42.636;23.198;2023-08-08T00:07:10;91918.78;;;15.73;100.00
37206;BME280;23099;42.636;23.198;2023-08-08T00:09:37;91911.16;;;15.61;100.00
37206;BME280;23099;42.636;23.198;2023-08-08T00:12:06;91915.00;;;15.64;100.00
37206;BME280;23099;42.636;23.198;2023-08-08T00:14:33;91919.22;;;15.61;100.00
37206;BME280;23099;42.636;23.198;2023-08-08T00:16:59;91920.41;;;15.53;100.00
37206;BME280;23099;42.636;23.198;2023-08-08T00:19:26;91916.25;;;15.41;100.00
37206;BME280;23099;42.636;23.198;2023-08-08T00:21:53;91921.69;;;15.16;100.00
37206;BME280;23099;42.636;23.198;2023-08-08T00:24:19;91927.88;;;15.13;100.00
37206;BME280;23099;42.636;23.198;2023-08-08T00:26:46;91932.16;;;15.00;100.00
37206;BME280;23099;42.636;23.198;2023-08-08T00:29:14;91937.19;;;14.80;100.00
37206;BME280;23099;42.636;23.198;2023-08-08T00:31:41;91933.75;;;14.66;100.00
37206;BME280;23099;42.636;23.198;2023-08-08T00:34:07;91936.06;;;14.71;100.00
37206;BME280;23099;42.636;23.198;2023-08-08T00:36:34;91936.84;;;14.71;100.00
37206;BME280;23099;42.636;23.198;2023-08-08T00:39:00;91940.69;;;14.70;100.00
37206;BME280;23099;42.636;23.198;2023-08-08T00:41:27;91943.72;;;14.72;100.00
37206;BME280;23099;42.636;23.198;2023-08-08T00:43:54;91944.50;;;14.73;100.00
37206;BME280;23099;42.636;23.198;2023-08-08T00:46:22;91943.72;;;14.76;100.00
37206;BME280;23099;42.636;23.198;2023-08-08T00:48:50;91949.50;;;14.67;100.00
37206;BME280;23099;42.636;23.198;2023-08-08T00:51:16;91941.06;;;14.69;100.00
37206;BME280;23099;42.636;23.198;2023-08-08T00:53:44;91952.22;;;14.71;100.00
37206;BME280;23099;42.636;23.198;2023-08-08T00:56:12;91942.22;;;14.71;100.00
37206;BME280;23099;42.636;23.198;2023-08-08T00:58:39;91945.25;;;14.77;100.00
37206;BME280;23099;42.636;23.198;2023-08-08T01:01:06;91952.97;;;14.71;100.00
37206;BME280;23099;42.636;23.198;2023-08-08T01:03:34;91957.56;;;14.60;100.00
37206;BME280;23099;42.636;23.198;2023-08-08T01:06:05;91956.03;;;14.63;100.00
37206;BME280;23099;42.636;23.198;2023-08-08T01:08:39;91967.19;;;14.65;100.00
37206;BME280;23099;42.636;23.198;2023-08-08T01:11:08;91967.97;;;14.65;100.00
37206;BME280;23099;42.636;23.198;2023-08-08T01:13:37;91959.91;;;14.55;100.00
37206;BME280;23099;42.636;23.198;2023-08-08T01:16:05;91959.50;;;14.49;100.00
37206;BME280;23099;42.636;23.198;2023-08-08T01:18:32;91949.91;;;14.52;100.00
37206;BME280;23099;42.636;23.198;2023-08-08T01:21:01;91962.19;;;14.49;100.00
37206;BME280;23099;42.636;23.198;2023-08-08T01:23:33;91954.91;;;14.53;100.00
37206;BME280;23099;42.636;23.198;2023-08-08T01:26:02;91957.22;;;14.55;100.00
37206;BME280;23099;42.636;23.198;2023-08-08T01:28:29;91957.59;;;14.49;100.00
37206;BME280;23099;42.636;23.198;2023-08-08T01:30:56;91948.00;;;14.52;100.00
37206;BME280;23099;42.636;23.198;2023-08-08T01:33:23;91967.94;;;14.37;100.00
37206;BME280;23099;42.636;23.198;2023-08-08T01:35:54;91977.97;;;14.40;100.00
37206;BME280;23099;42.636;23.198;2023-08-08T01:38:26;91991.78;;;14.45;100.00
37206;BME280;23099;42.636;23.198;2023-08-08T01:40:56;91989.81;;;14.25;99.43
37206;BME280;23099;42.636;23.198;2023-08-08T01:43:26;91986.75;;;14.26;97.97
37206;BME280;23099;42.636;23.198;2023-08-08T01:45:53;91983.31;;;14.26;99.26
37206;BME280;23099;42.636;23.198;2023-08-08T01:48:20;91974.47;;;14.22;100.00
37206;BME280;23099;42.636;23.198;2023-08-08T01:50:47;91979.44;;;14.16;100.00
37206;BME280;23099;42.636;23.198;2023-08-08T01:53:14;92000.94;;;14.20;100.00
37206;BME280;23099;42.636;23.198;2023-08-08T01:55:41;91990.59;;;14.25;100.00
37206;BME280;23099;42.636;23.198;2023-08-08T01:58:07;91991.38;;;14.26;100.00
37206;BME280;23099;42.636;23.198;2023-08-08T02:00:36;91986.75;;;14.26;100.00
37206;BME280;23099;42.636;23.198;2023-08-08T02:03:02;91983.28;;;14.19;100.00
37206;BME280;23099;42.636;23.198;2023-08-08T02:05:29;91988.66;;;14.19;100.00
37206;BME280;23099;42.636;23.198;2023-08-08T02:07:56;91989.44;;;14.23;100.00
37206;BME280;23099;42.636;23.198;2023-08-08T02:10:23;91979.06;;;14.18;100.00
37206;BME280;23099;42.636;23.198;2023-08-08T02:12:49;91997.50;;;14.23;100.00
37206;BME280;23099;42.636;23.198;2023-08-08T02:15:16;92003.63;;;14.16;100.00
37206;BME280;23099;42.636;23.198;2023-08-08T02:17:45;92015.94;;;14.21;100.00
37206;BME280;23099;42.636;23.198;2023-08-08T02:20:12;92025.13;;;14.05;100.00
37206;BME280;23099;42.636;23.198;2023-08-08T02:22:39;92015.09;;;13.92;100.00
37206;BME280;23099;42.636;23.198;2023-08-08T02:25:06;92015.84;;;13.89;100.00
37206;BME280;23099;42.636;23.198;2023-08-08T02:27:33;92001.25;;;13.79;100.00
37206;BME280;23099;42.636;23.198;2023-08-08T02:29:59;92000.91;;;13.91;100.00
37206;BME280;23099;42.636;23.198;2023-08-08T02:32:26;92002.81;;;13.94;100.00
37206;BME280;23099;42.636;23.198;2023-08-08T02:34:54;92013.97;;;14.00;100.00
37206;BME280;23099;42.636;23.198;2023-08-08T02:37:21;92010.91;;;13.98;100.00
37206;BME280;23099;42.636;23.198;2023-08-08T02:39:48;92018.91;;;13.87;100.00
37206;BME280;23099;42.636;23.198;2023-08-08T02:42:14;92011.63;;;13.84;100.00
37206;BME280;23099;42.636;23.198;2023-08-08T02:44:41;92023.94;;;13.92;100.00
37206;BME280;23099;42.636;23.198;2023-08-08T02:47:08;92016.25;;;13.94;100.00
37206;BME280;23099;42.636;23.198;2023-08-08T02:49:34;92029.72;;;13.98;100.00
37206;BME280;23099;42.636;23.198;2023-08-08T02:52:03;92041.22;;;13.98;100.00
37206;BME280;23099;42.636;23.198;2023-08-08T02:54:30;92040.06;;;13.96;100.00
37206;BME280;23099;42.636;23.198;2023-08-08T02:56:56;92040.81;;;13.93;100.00
37206;BME280;23099;42.636;23.198;2023-08-08T02:59:23;92036.94;;;13.87;100.00
37206;BME280;23099;42.636;23.198;2023-08-08T03:01:50;92039.63;;;13.87;100.00
37206;BME280;23099;42.636;23.198;2023-08-08T03:04:16;92041.59;;;13.93;100.00
37206;BME280;23099;42.636;23.198;2023-08-08T03:06:43;92042.00;;;13.95;100.00
37206;BME280;23099;42.636;23.198;2023-08-08T03:09:11;92033.13;;;13.91;100.00
37206;BME280;23099;42.636;23.198;2023-08-08T03:11:38;92036.22;;;14.00;100.00
37206;BME280;23099;42.636;23.198;2023-08-08T03:14:07;92040.47;;;13.98;100.00
37206;BME280;23099;42.636;23.198;2023-08-08T03:16:33;92037.78;;;13.98;100.00
37206;BME280;23099;42.636;23.198;2023-08-08T03:19:00;92042.75;;;14.03;100.00
37206;BME280;23099;42.636;23.198;2023-08-08T03:21:27;92044.31;;;14.07;100.00
37206;BME280;23099;42.636;23.198;2023-08-08T03:23:53;92054.28;;;14.03;100.00
37206;BME280;23099;42.636;23.198;2023-08-08T03:26:21;92055.81;;;14.01;100.00
37206;BME280;23099;42.636;23.198;2023-08-08T03:28:48;92062.75;;;14.05;100.00
37206;BME280;23099;42.636;23.198;2023-08-08T03:31:16;92056.59;;;14.08;100.00
37206;BME280;23099;42.636;23.198;2023-08-08T03:33:43;92044.69;;;14.06;100.00
37206;BME280;23099;42.636;23.198;2023-08-08T03:36:10;92056.59;;;14.05;100.00
37206;BME280;23099;42.636;23.198;2023-08-08T03:38:37;92060.41;;;13.93;100.00
37206;BME280;23099;42.636;23.198;2023-08-08T03:41:04;92065.41;;;13.98;100.00
37206;BME280;23099;42.636;23.198;2023-08-08T03:43:32;92064.63;;;14.01;100.00
37206;BME280;23099;42.636;23.198;2023-08-08T03:45:58;92059.66;;;14.03;100.00
37206;BME280;23099;42.636;23.198;2023-08-08T03:48:25;92054.69;;;14.05;100.00
37206;BME280;23099;42.636;23.198;2023-08-08T03:50:52;92043.94;;;14.09;100.00
37206;BME280;23099;42.636;23.198;2023-08-08T03:53:18;92056.25;;;14.13;100.00
37206;BME280;23099;42.636;23.198;2023-08-08T03:55:45;92050.47;;;14.15;100.00
37206;BME280;23099;42.636;23.198;2023-08-08T03:58:12;92052.41;;;14.22;100.00
37206;BME280;23099;42.636;23.198;2023-08-08T04:00:40;92059.72;;;14.25;100.00
37206;BME280;23099;42.636;23.198;2023-08-08T04:03:12;92082.75;;;14.29;100.00
37206;BME280;23099;42.636;23.198;2023-08-08T04:05:39;92080.06;;;14.29;100.00
37206;BME280;23099;42.636;23.198;2023-08-08T04:08:06;92081.59;;;14.30;100.00
37206;BME280;23099;42.636;23.198;2023-08-08T04:10:33;92078.91;;;14.23;100.00
37206;BME280;23099;42.636;23.198;2023-08-08T04:12:59;92079.69;;;14.24;100.00
37206;BME280;23099;42.636;23.198;2023-08-08T04:15:26;92087.38;;;14.25;100.00
37206;BME280;23099;42.636;23.198;2023-08-08T04:17:54;92084.66;;;14.29;100.00
37206;BME280;23099;42.636;23.198;2023-08-08T04:20:21;92085.09;;;14.34;100.00
37206;BME280;23099;42.636;23.198;2023-08-08T04:22:47;92088.91;;;14.26;100.00
37206;BME280;23099;42.636;23.198;2023-08-08T04:25:15;92094.25;;;14.19;100.00
37206;BME280;23099;42.636;23.198;2023-08-08T04:27:41;92098.09;;;14.22;100.00
37206;BME280;23099;42.636;23.198;2023-08-08T04:30:09;92095.38;;;14.14;100.00
37206;BME280;23099;42.636;23.198;2023-08-08T04:32:35;92093.84;;;14.10;100.00
37206;BME280;23099;42.636;23.198;2023-08-08T04:35:04;92095.00;;;14.09;100.00
37206;BME280;23099;42.636;23.198;2023-08-08T04:37:31;92090.78;;;14.11;100.00
37206;BME280;23099;42.636;23.198;2023-08-08T04:39:57;92090.81;;;14.19;100.00
37206;BME280;23099;42.636;23.198;2023-08-08T04:42:24;92075.84;;;14.25;100.00
37206;BME280;23099;42.636;23.198;2023-08-08T04:44:51;92068.94;;;14.27;100.00
37206;BME280;23099;42.636;23.198;2023-08-08T04:47:17;92070.50;;;14.28;100.00
37206;BME280;23099;42.636;23.198;2023-08-08T04:49:44;92074.31;;;14.31;100.00
37206;BME280;23099;42.636;23.198;2023-08-08T04:52:12;92086.97;;;14.30;100.00
37206;BME280;23099;42.636;23.198;2023-08-08T04:54:39;92092.75;;;14.32;100.00
37206;BME280;23099;42.636;23.198;2023-08-08T04:57:06;92102.00;;;14.38;100.00
37206;BME280;23099;42.636;23.198;2023-08-08T04:59:33;92118.94;;;14.42;100.00
37206;BME280;23099;42.636;23.198;2023-08-08T05:01:59;92122.41;;;14.46;100.00
37206;BME280;23099;42.636;23.198;2023-08-08T05:04:26;92136.19;;;14.38;100.00
37206;BME280;23099;42.636;23.198;2023-08-08T05:06:53;92153.06;;;14.35;100.00
37206;BME280;23099;42.636;23.198;2023-08-08T05:09:21;92151.13;;;14.32;100.00
37206;BME280;23099;42.636;23.198;2023-08-08T05:11:51;92143.44;;;14.27;100.00
37206;BME280;23099;42.636;23.198;2023-08-08T05:14:18;92149.16;;;14.18;100.00
37206;BME280;23099;42.636;23.198;2023-08-08T05:16:45;92148.75;;;14.09;100.00
37206;BME280;23099;42.636;23.198;2023-08-08T05:19:12;92165.63;;;14.06;100.00
37206;BME280;23099;42.636;23.198;2023-08-08T05:21:39;92161.59;;;13.71;96.13
37206;BME280;23099;42.636;23.198;2023-08-08T05:24:05;92148.66;;;13.84;99.22
37206;BME280;23099;42.636;23.198;2023-08-08T05:26:34;92162.50;;;13.93;100.00
37206;BME280;23099;42.636;23.198;2023-08-08T05:29:00;92166.03;;;14.08;100.00
37206;BME280;23099;42.636;23.198;2023-08-08T05:31:27;92181.41;;;14.11;96.47
37206;BME280;23099;42.636;23.198;2023-08-08T05:33:54;92197.22;;;14.27;100.00
37206;BME280;23099;42.636;23.198;2023-08-08T05:36:21;92194.53;;;14.27;99.95
37206;BME280;23099;42.636;23.198;2023-08-08T05:38:48;92197.59;;;14.32;100.00
37206;BME280;23099;42.636;23.198;2023-08-08T05:41:14;92187.94;;;14.17;97.85
37206;BME280;23099;42.636;23.198;2023-08-08T05:43:43;92201.44;;;14.24;100.00
37206;BME280;23099;42.636;23.198;2023-08-08T05:46:09;92190.69;;;14.28;99.02
37206;BME280;23099;42.636;23.198;2023-08-08T05:48:36;92187.22;;;14.31;100.00
37206;BME280;23099;42.636;23.198;2023-08-08T05:51:03;92186.84;;;14.25;99.15
37206;BME280;23099;42.636;23.198;2023-08-08T05:53:30;92204.13;;;14.28;98.29
37206;BME280;23099;42.636;23.198;2023-08-08T05:55:57;92216.81;;;14.31;97.70
37206;BME280;23099;42.636;23.198;2023-08-08T05:58:24;92216.00;;;14.20;100.00
37206;BME280;23099;42.636;23.198;2023-08-08T06:00:52;92220.63;;;14.30;99.84
37206;BME280;23099;42.636;23.198;2023-08-08T06:03:19;92227.59;;;14.38;100.00
37206;BME280;23099;42.636;23.198;2023-08-08T06:05:46;92221.88;;;14.43;100.00
37206;BME280;23099;42.636;23.198;2023-08-08T06:08:13;92218.81;;;14.41;100.00
37206;BME280;23099;42.636;23.198;2023-08-08T06:10:41;92224.22;;;14.48;100.00
37206;BME280;23099;42.636;23.198;2023-08-08T06:13:08;92220.41;;;14.56;100.00
37206;BME280;23099;42.636;23.198;2023-08-08T06:15:35;92219.63;;;14.52;98.32
37206;BME280;23099;42.636;23.198;2023-08-08T06:18:04;92217.72;;;14.60;95.02
37206;BME280;23099;42.636;23.198;2023-08-08T06:20:31;92228.09;;;14.61;96.02
37206;BME280;23099;42.636;23.198;2023-08-08T06:22:57;92227.75;;;14.73;94.51
37206;BME280;23099;42.636;23.198;2023-08-08T06:25:24;92226.56;;;14.64;94.22
37206;BME280;23099;42.636;23.198;2023-08-08T06:27:51;92221.97;;;14.68;92.84
37206;BME280;23099;42.636;23.198;2023-08-08T06:30:17;92226.56;;;14.57;93.46
37206;BME280;23099;42.636;23.198;2023-08-08T06:32:44;92228.88;;;14.62;92.85
37206;BME280;23099;42.636;23.198;2023-08-08T06:35:12;92219.63;;;14.59;95.34
37206;BME280;23099;42.636;23.198;2023-08-08T06:37:42;92213.53;;;14.66;96.94
37206;BME280;23099;42.636;23.198;2023-08-08T06:40:10;92222.31;;;14.59;96.09
37206;BME280;23099;42.636;23.198;2023-08-08T06:42:38;92226.56;;;14.64;93.10
37206;BME280;23099;42.636;23.198;2023-08-08T06:45:05;92230.06;;;14.71;95.78
37206;BME280;23099;42.636;23.198;2023-08-08T06:47:32;92223.94;;;14.81;97.75
37206;BME280;23099;42.636;23.198;2023-08-08T06:49:59;92218.16;;;14.86;94.59
37206;BME280;23099;42.636;23.198;2023-08-08T06:52:27;92225.13;;;14.98;98.31
37206;BME280;23099;42.636;23.198;2023-08-08T06:54:54;92220.91;;;14.97;95.84
37206;BME280;23099;42.636;23.198;2023-08-08T06:57:20;92233.19;;;14.91;88.29
37206;BME280;23099;42.636;23.198;2023-08-08T06:59:47;92225.53;;;15.00;87.47
37206;BME280;23099;42.636;23.198;2023-08-08T07:02:16;92232.47;;;15.08;90.31
37206;BME280;23099;42.636;23.198;2023-08-08T07:04:43;92223.59;;;15.15;88.83
37206;BME280;23099;42.636;23.198;2023-08-08T07:07:09;92225.94;;;15.13;87.19
37206;BME280;23099;42.636;23.198;2023-08-08T07:09:37;92226.69;;;15.17;90.72
37206;BME280;23099;42.636;23.198;2023-08-08T07:12:04;92227.47;;;15.14;88.60
37206;BME280;23099;42.636;23.198;2023-08-08T07:14:31;92229.38;;;15.17;89.89
37206;BME280;23099;42.636;23.198;2023-08-08T07:16:58;92225.13;;;15.05;94.24
37206;BME280;23099;42.636;23.198;2023-08-08T07:19:25;92222.03;;;14.89;87.55
37206;BME280;23099;42.636;23.198;2023-08-08T07:21:51;92226.25;;;14.79;88.01
37206;BME280;23099;42.636;23.198;2023-08-08T07:24:18;92223.56;;;14.79;90.25
37206;BME280;23099;42.636;23.198;2023-08-08T07:26:47;92222.03;;;14.82;91.75
37206;BME280;23099;42.636;23.198;2023-08-08T07:29:13;92229.72;;;14.83;89.85
37206;BME280;23099;42.636;23.198;2023-08-08T07:31:40;92230.06;;;14.78;84.62
37206;BME280;23099;42.636;23.198;2023-08-08T07:34:07;92229.72;;;14.91;85.89
37206;BME280;23099;42.636;23.198;2023-08-08T07:36:33;92237.78;;;14.91;84.47
37206;BME280;23099;42.636;23.198;2023-08-08T07:39:00;92225.91;;;14.95;85.20
37206;BME280;23099;42.636;23.198;2023-08-08T07:41:29;92232.81;;;15.03;84.22
37206;BME280;23099;42.636;23.198;2023-08-08T07:43:58;92225.53;;;15.07;82.94
37206;BME280;23099;42.636;23.198;2023-08-08T07:46:24;92229.41;;;15.20;82.74
37206;BME280;23099;42.636;23.198;2023-08-08T07:48:51;92225.16;;;15.34;81.97
37206;BME280;23099;42.636;23.198;2023-08-08T07:51:18;92218.66;;;15.38;81.93
37206;BME280;23099;42.636;23.198;2023-08-08T07:53:44;92223.28;;;15.41;80.79
37206;BME280;23099;42.636;23.198;2023-08-08T07:56:11;92224.41;;;15.47;77.89
37206;BME280;23099;42.636;23.198;2023-08-08T07:58:38;92235.19;;;15.54;79.47
37206;BME280;23099;42.636;23.198;2023-08-08T08:01:06;92230.97;;;15.64;79.60
37206;BME280;23099;42.636;23.198;2023-08-08T08:03:57;92239.44;;;15.66;79.55
37206;BME280;23099;42.636;23.198;2023-08-08T08:06:24;92214.44;;;15.62;80.15
37206;BME280;23099;42.636;23.198;2023-08-08T08:08:50;92217.88;;;15.77;78.81
37206;BME280;23099;42.636;23.198;2023-08-08T08:11:17;92218.25;;;15.89;79.49
37206;BME280;23099;42.636;23.198;2023-08-08T08:13:44;92219.03;;;15.90;77.20
37206;BME280;23099;42.636;23.198;2023-08-08T08:16:12;92225.19;;;15.94;78.80
37206;BME280;23099;42.636;23.198;2023-08-08T08:19:00;92224.00;;;16.02;80.77
37206;BME280;23099;42.636;23.198;2023-08-08T08:21:27;92227.84;;;16.12;82.33
37206;BME280;23099;42.636;23.198;2023-08-08T08:23:53;92223.19;;;16.16;80.60
37206;BME280;23099;42.636;23.198;2023-08-08T08:26:20;92229.78;;;16.15;82.46
37206;BME280;23099;42.636;23.198;2023-08-08T08:28:47;92230.16;;;16.13;80.61
37206;BME280;23099;42.636;23.198;2023-08-08T08:31:15;92227.47;;;16.10;77.84
37206;BME280;23099;42.636;23.198;2023-08-08T08:33:41;92225.13;;;16.22;77.12
37206;BME280;23099;42.636;23.198;2023-08-08T08:36:08;92229.75;;;16.22;75.32
37206;BME280;23099;42.636;23.198;2023-08-08T08:38:35;92234.38;;;16.21;76.09
37206;BME280;23099;42.636;23.198;2023-08-08T08:41:02;92230.91;;;16.21;74.43
37206;BME280;23099;42.636;23.198;2023-08-08T08:43:30;92230.50;;;16.19;76.78
37206;BME280;23099;42.636;23.198;2023-08-08T08:46:00;92222.84;;;16.03;73.07
37206;BME280;23099;42.636;23.198;2023-08-08T08:48:29;92220.16;;;16.14;69.72
37206;BME280;23099;42.636;23.198;2023-08-08T08:50:57;92227.44;;;16.27;71.36
37206;BME280;23099;42.636;23.198;2023-08-08T08:53:24;92221.22;;;16.38;74.56
37206;BME280;23099;42.636;23.198;2023-08-08T08:55:52;92228.53;;;16.37;76.44
37206;BME280;23099;42.636;23.198;2023-08-08T08:58:19;92215.44;;;16.36;71.48
37206;BME280;23099;42.636;23.198;2023-08-08T09:00:47;92215.44;;;16.39;73.10
37206;BME280;23099;42.636;23.198;2023-08-08T09:03:15;92230.47;;;16.44;76.17
37206;BME280;23099;42.636;23.198;2023-08-08T09:05:44;92226.28;;;16.25;72.22
37206;BME280;23099;42.636;23.198;2023-08-08T09:08:11;92230.50;;;16.22;70.88
37206;BME280;23099;42.636;23.198;2023-08-08T09:10:38;92212.75;;;16.39;73.26
37206;BME280;23099;42.636;23.198;2023-08-08T09:13:05;92231.19;;;16.58;74.03
37206;BME280;23099;42.636;23.198;2023-08-08T09:15:32;92220.75;;;16.64;69.82
37206;BME280;23099;42.636;23.198;2023-08-08T09:17:59;92208.81;;;16.65;70.78
37206;BME280;23099;42.636;23.198;2023-08-08T09:20:27;92214.13;;;16.86;72.71
37206;BME280;23099;42.636;23.198;2023-08-08T09:22:56;92209.44;;;16.98;74.01
37206;BME280;23099;42.636;23.198;2023-08-08T09:25:23;92209.81;;;17.00;69.02
37206;BME280;23099;42.636;23.198;2023-08-08T09:27:51;92210.91;;;17.09;71.91
37206;BME280;23099;42.636;23.198;2023-08-08T09:30:19;92219.31;;;17.18;68.61
37206;BME280;23099;42.636;23.198;2023-08-08T09:32:46;92215.41;;;17.26;69.25
37206;BME280;23099;42.636;23.198;2023-08-08T09:35:12;92222.28;;;17.38;66.94
37206;BME280;23099;42.636;23.198;2023-08-08T09:37:39;92227.97;;;17.54;68.56
37206;BME280;23099;42.636;23.198;2023-08-08T09:40:09;92228.28;;;17.67;69.38
37206;BME280;23099;42.636;23.198;2023-08-08T09:42:36;92226.78;;;17.55;67.67
37206;BME280;23099;42.636;23.198;2023-08-08T09:45:04;92229.06;;;17.60;67.50
37206;BME280;23099;42.636;23.198;2023-08-08T09:47:31;92229.78;;;17.72;68.07
37206;BME280;23099;42.636;23.198;2023-08-08T09:49:59;92232.03;;;17.77;67.33
37206;BME280;23099;42.636;23.198;2023-08-08T09:52:27;92237.91;;;17.68;65.34
37206;BME280;23099;42.636;23.198;2023-08-08T09:54:55;92239.47;;;17.62;68.46
37206;BME280;23099;42.636;23.198;2023-08-08T09:57:24;92242.66;;;17.46;64.44
37206;BME280;23099;42.636;23.198;2023-08-08T09:59:52;92225.94;;;17.62;65.31
37206;BME280;23099;42.636;23.198;2023-08-08T10:02:19;92234.34;;;17.82;64.56
37206;BME280;23099;42.636;23.198;2023-08-08T10:04:46;92233.09;;;17.90;60.82
37206;BME280;23099;42.636;23.198;2023-08-08T10:07:13;92237.88;;;18.16;62.62
37206;BME280;23099;42.636;23.198;2023-08-08T10:09:40;92232.09;;;18.18;64.15
37206;BME280;23099;42.636;23.198;2023-08-08T10:12:08;92237.97;;;18.06;64.85
37206;BME280;23099;42.636;23.198;2023-08-08T10:14:37;92238.88;;;17.92;66.16
37206;BME280;23099;42.636;23.198;2023-08-08T10:17:05;92236.75;;;17.69;65.86
37206;BME280;23099;42.636;23.198;2023-08-08T10:19:32;92250.69;;;17.60;62.93
37206;BME280;23099;42.636;23.198;2023-08-08T10:22:03;92242.47;;;17.75;66.21
37206;BME280;23099;42.636;23.198;2023-08-08T10:24:33;92245.41;;;17.98;65.16
37206;BME280;23099;42.636;23.198;2023-08-08T10:27:01;92236.09;;;18.40;65.02
37206;BME280;23099;42.636;23.198;2023-08-08T10:29:30;92243.34;;;18.47;57.15
37206;BME280;23099;42.636;23.198;2023-08-08T10:31:59;92241.06;;;18.83;63.03
37206;BME280;23099;42.636;23.198;2023-08-08T10:34:37;92240.13;;;18.62;60.41
37206;BME280;23099;42.636;23.198;2023-08-08T10:37:04;92241.72;;;18.60;62.56
37206;BME280;23099;42.636;23.198;2023-08-08T10:39:32;92227.44;;;18.52;62.24
37206;BME280;23099;42.636;23.198;2023-08-08T10:42:02;92230.19;;;18.49;62.75
37206;BME280;23099;42.636;23.198;2023-08-08T10:44:29;92225.88;;;18.55;60.99
37206;BME280;23099;42.636;23.198;2023-08-08T10:46:56;92218.28;;;19.07;63.00
37206;BME280;23099;42.636;23.198;2023-08-08T10:49:24;92213.00;;;19.54;58.28
37206;BME280;23099;42.636;23.198;2023-08-08T10:51:51;92217.16;;;20.08;56.89
37206;BME280;23099;42.636;23.198;2023-08-08T10:54:20;92221.91;;;20.24;57.24
37206;BME280;23099;42.636;23.198;2023-08-08T10:56:49;92219.16;;;20.28;55.39
37206;BME280;23099;42.636;23.198;2023-08-08T10:59:18;92217.38;;;20.41;55.38
37206;BME280;23099;42.636;23.198;2023-08-08T11:01:46;92205.00;;;20.60;54.71
37206;BME280;23099;42.636;23.198;2023-08-08T11:04:15;92208.88;;;20.98;58.74
37206;BME280;23099;42.636;23.198;2023-08-08T11:06:43;92215.47;;;21.37;53.64
37206;BME280;23099;42.636;23.198;2023-08-08T11:09:10;92218.13;;;21.57;53.69
37206;BME280;23099;42.636;23.198;2023-08-08T11:11:38;92216.75;;;21.65;48.51
37206;BME280;23099;42.636;23.198;2023-08-08T11:14:12;92212.38;;;21.87;48.65
37206;BME280;23099;42.636;23.198;2023-08-08T11:16:39;92213.06;;;22.07;45.85
37206;BME280;23099;42.636;23.198;2023-08-08T11:19:06;92211.91;;;22.37;46.70
37206;BME280;23099;42.636;23.198;2023-08-08T11:21:36;92213.56;;;22.64;48.89
37206;BME280;23099;42.636;23.198;2023-08-08T11:24:05;92217.81;;;22.65;46.56
37206;BME280;23099;42.636;23.198;2023-08-08T11:26:32;92214.13;;;22.26;46.34
37206;BME280;23099;42.636;23.198;2023-08-08T11:29:00;92215.16;;;21.67;46.75
37206;BME280;23099;42.636;23.198;2023-08-08T11:31:27;92204.03;;;22.10;47.14
37206;BME280;23099;42.636;23.198;2023-08-08T11:33:55;92202.94;;;22.53;45.55
37206;BME280;23099;42.636;23.198;2023-08-08T11:36:22;92215.22;;;22.74;45.57
37206;BME280;23099;42.636;23.198;2023-08-08T11:39:15;92212.63;;;23.12;46.99
37206;BME280;23099;42.636;23.198;2023-08-08T11:41:42;92212.78;;;23.46;44.22
37206;BME280;23099;42.636;23.198;2023-08-08T11:44:09;92220.88;;;23.63;42.14
37206;BME280;23099;42.636;23.198;2023-08-08T11:46:43;92210.06;;;23.72;44.33
37206;BME280;23099;42.636;23.198;2023-08-08T11:49:13;92196.63;;;23.90;38.99
37206;BME280;23099;42.636;23.198;2023-08-08T11:51:43;92190.03;;;24.13;40.75
37206;BME280;23099;42.636;23.198;2023-08-08T11:54:10;92199.09;;;24.22;39.46
37206;BME280;23099;42.636;23.198;2023-08-08T11:56:38;92199.88;;;23.97;40.65
37206;BME280;23099;42.636;23.198;2023-08-08T11:59:04;92202.31;;;23.83;41.63
37206;BME280;23099;42.636;23.198;2023-08-08T12:01:33;92199.47;;;23.74;41.06
37206;BME280;23099;42.636;23.198;2023-08-08T12:04:05;92201.56;;;23.70;40.90
37206;BME280;23099;42.636;23.198;2023-08-08T12:06:32;92187.25;;;23.78;40.20
37206;BME280;23099;42.636;23.198;2023-08-08T12:09:01;92192.44;;;24.11;42.12
37206;BME280;23099;42.636;23.198;2023-08-08T12:11:28;92191.22;;;24.12;39.29
37206;BME280;23099;42.636;23.198;2023-08-08T12:14:00;92191.16;;;24.03;40.07
37206;BME280;23099;42.636;23.198;2023-08-08T12:16:28;92182.91;;;24.15;39.79
37206;BME280;23099;42.636;23.198;2023-08-08T12:18:55;92176.06;;;24.23;40.72
37206;BME280;23099;42.636;23.198;2023-08-08T12:21:21;92174.22;;;24.08;39.71
37206;BME280;23099;42.636;23.198;2023-08-08T12:23:48;92165.44;;;24.13;39.48
37206;BME280;23099;42.636;23.198;2023-08-08T12:26:15;92172.63;;;24.32;39.56
37206;BME280;23099;42.636;23.198;2023-08-08T12:28:41;92170.78;;;24.16;39.30
37206;BME280;23099;42.636;23.198;2023-08-08T12:31:10;92160.75;;;24.13;40.93
37206;BME280;23099;42.636;23.198;2023-08-08T12:33:36;92160.53;;;24.20;39.10
37206;BME280;23099;42.636;23.198;2023-08-08T12:36:03;92164.16;;;24.05;40.28
37206;BME280;23099;42.636;23.198;2023-08-08T12:38:29;92160.84;;;24.10;40.20
37206;BME280;23099;42.636;23.198;2023-08-08T12:40:56;92160.59;;;23.82;40.33
37206;BME280;23099;42.636;23.198;2023-08-08T12:43:23;92172.53;;;23.76;41.15
37206;BME280;23099;42.636;23.198;2023-08-08T12:45:50;92164.75;;;23.74;39.12
37206;BME280;23099;42.636;23.198;2023-08-08T12:48:18;92166.19;;;23.66;39.47